Airfield :
LOGIN :

Register | Disclaimer

   EN    FR    IT 

 










Legend :    VFR   Marginal VFR   IFR   Intensive IFR   Very Intensive IFR
Visi :
Ceiling :
>= 8 km
>= 3000ft
5 to 8 km
1000 to 3000 ft
1500m to 5 km
500 to 1000 ft
800 to 1500m
200 to 500 ft
< 800m
< 200 ft
Symbols :   Thunderstorms  Fog  Heavy snow  Heavy precipitations  Wind > 20 kt
SIGMETs :     Misc.  Thunderstorms  Icing  Turbulence  Mountain Waves  Volcanic Ashes






- Airport Elevation : 614 ft
- IATA code : CRL


EBCI - Charleroi

CURRENT METAR :
  • 210550Z 11004KT 080V150 6000 FEW006 BKN008 M01/M02 Q1007 TEMPO 2000 BR BKN004

EXPIRED METARs :
  • 210520Z 11003KT 6000 FEW006 BKN008 M01/M02 Q1008 TEMPO 2000 BR BKN004
  • 210450Z 11004KT 6000 FEW007 BKN009 M01/M02 Q1008 TEMPO 3000 BR BKN005
  • 210420Z 10004KT 6000 SCT007 BKN010 M01/M02 Q1008 TEMPO 4000 BR BKN005
  • 210350Z 11005KT 7000 NSC M01/M02 Q1008 NOSIG
  • 210320Z 12006KT CAVOK M01/M02 Q1009 NOSIG

TAF TAF EBCI
Valid from the 21 at 06:00 until the 22 at 12:00 UTC


210501Z 2106/2212 12005KT 7000 BKN006
BECMG 2110/2112 NSC



MET'MAP, your aeronautical weather chart ! - Copyright ORBIFLY December 2007 - Disclaimer

ORBIFLY MET'MAP TEAM :

Programming & Development : Alexandra Zaïnal
Concept & Development : Baudouin d'Aumeries
Co-Development & Prog : Marc-Olivier Méhu
Technical & hardware support : Manuel Goepfert

Contact : metmap@orbifly.com




SOURCES & CREDITS :

   NOAA